createdAt,value
2018-11-21T00:01:23.486Z,19.85
2018-11-21T00:03:51.796Z,22.10
2018-11-21T00:06:20.230Z,20.80
2018-11-21T00:08:48.429Z,23.22
2018-11-21T00:11:16.805Z,22.27
2018-11-21T00:13:45.153Z,21.68
2018-11-21T00:16:13.402Z,21.60
2018-11-21T00:18:41.802Z,21.60
2018-11-21T00:21:10.162Z,21.27
2018-11-21T00:23:38.534Z,19.77
2018-11-21T00:26:06.774Z,21.95
2018-11-21T00:28:35.117Z,20.23
2018-11-21T00:31:03.324Z,21.12
2018-11-21T00:33:31.561Z,20.00
2018-11-21T00:35:59.949Z,20.52
2018-11-21T00:38:28.280Z,21.82
2018-11-21T00:40:56.497Z,21.35
2018-11-21T00:43:24.699Z,20.32
2018-11-21T00:45:52.945Z,20.20
2018-11-21T00:48:21.157Z,20.00
2018-11-21T00:50:49.345Z,21.25
2018-11-21T00:53:17.713Z,21.12
2018-11-21T00:55:45.889Z,19.37
2018-11-21T00:58:14.084Z,20.05
2018-11-21T01:00:42.222Z,22.13
2018-11-21T01:03:10.432Z,21.25
2018-11-21T01:05:38.631Z,22.87
2018-11-21T01:08:06.781Z,21.00
2018-11-21T01:10:34.964Z,21.57
2018-11-21T01:13:03.364Z,21.57
2018-11-21T01:15:31.556Z,20.55
2018-11-21T01:17:59.801Z,21.27
2018-11-21T01:20:28.012Z,21.20
2018-11-21T01:22:56.475Z,20.68
2018-11-21T01:25:24.670Z,20.95
2018-11-21T01:27:52.910Z,20.37
2018-11-21T01:30:21.118Z,20.25
2018-11-21T01:32:49.285Z,19.50
2018-11-21T01:35:17.496Z,20.00
2018-11-21T01:37:45.694Z,20.72
2018-11-21T01:40:14.087Z,20.57
2018-11-21T01:42:42.269Z,22.37
2018-11-21T01:45:10.442Z,21.35
2018-11-21T01:47:38.651Z,20.70
2018-11-21T01:50:07.982Z,20.92
2018-11-21T01:52:36.347Z,19.82
2018-11-21T01:55:05.014Z,22.77
2018-11-21T01:57:33.401Z,21.80
2018-11-21T02:00:01.561Z,22.32
2018-11-21T02:02:29.841Z,19.90
2018-11-21T02:04:58.057Z,20.75
2018-11-21T02:07:26.236Z,20.88
2018-11-21T02:09:54.465Z,20.72
2018-11-21T02:12:22.679Z,20.10
2018-11-21T02:14:50.935Z,18.95
2018-11-21T02:17:19.107Z,20.65
2018-11-21T02:19:47.360Z,20.92
2018-11-21T02:22:15.531Z,18.52
2018-11-21T02:24:43.677Z,20.40
2018-11-21T02:27:11.856Z,20.08
2018-11-21T02:29:40.025Z,19.55
2018-11-21T02:32:08.470Z,18.80
2018-11-21T02:34:37.196Z,19.27
2018-11-21T02:37:05.485Z,19.48
2018-11-21T02:39:33.679Z,18.87
2018-11-21T02:42:01.870Z,19.15
2018-11-21T02:44:30.075Z,18.30
2018-11-21T02:46:58.271Z,18.35
2018-11-21T02:49:26.450Z,19.95
2018-11-21T02:51:54.621Z,20.27
2018-11-21T02:54:23.038Z,19.62
2018-11-21T02:57:13.598Z,18.40
2018-11-21T02:59:41.917Z,18.65
2018-11-21T03:02:10.071Z,20.77
2018-11-21T03:04:38.437Z,19.15
2018-11-21T03:07:06.831Z,19.07
2018-11-21T03:09:35.516Z,20.17
2018-11-21T03:12:03.975Z,19.35
2018-11-21T03:14:32.144Z,20.32
2018-11-21T03:17:00.454Z,19.00
2018-11-21T03:19:28.588Z,18.95
2018-11-21T03:21:56.953Z,21.27
2018-11-21T03:24:25.146Z,19.95
2018-11-21T03:26:53.969Z,20.77
2018-11-21T03:29:22.437Z,19.98
2018-11-21T03:31:51.115Z,19.32
2018-11-21T03:34:19.623Z,20.65
2018-11-21T03:36:48.773Z,20.52
2018-11-21T03:39:18.190Z,18.92
2018-11-21T03:41:46.872Z,18.27
2018-11-21T03:44:15.166Z,19.65
2018-11-21T03:46:44.345Z,19.45
2018-11-21T03:49:12.529Z,20.45
2018-11-21T03:51:40.726Z,18.82
2018-11-21T03:54:09.170Z,19.20
2018-11-21T03:56:37.870Z,19.55
2018-11-21T03:59:06.249Z,20.32
2018-11-21T04:01:34.401Z,18.37
2018-11-21T04:04:02.604Z,19.23
2018-11-21T04:06:30.817Z,19.45
2018-11-21T04:08:59.252Z,19.40
2018-11-21T04:11:27.749Z,28.17
2018-11-21T04:13:55.883Z,22.35
2018-11-21T04:16:24.105Z,21.70
2018-11-21T04:18:53.681Z,22.52
2018-11-21T04:21:21.863Z,21.17
2018-11-21T04:23:50.091Z,20.80
2018-11-21T04:26:18.716Z,19.25
2018-11-21T04:28:47.292Z,18.57
2018-11-21T04:31:15.979Z,18.45
2018-11-21T04:33:44.164Z,19.40
2018-11-21T04:36:13.135Z,20.12
2018-11-21T04:38:41.308Z,19.75
2018-11-21T04:41:09.535Z,20.55
2018-11-21T04:43:38.062Z,21.10
2018-11-21T04:46:06.854Z,19.90
2018-11-21T04:48:35.563Z,21.33
2018-11-21T04:51:03.903Z,21.27
2018-11-21T04:53:32.115Z,20.25
2018-11-21T04:56:00.279Z,21.50
2018-11-21T04:58:28.449Z,20.37
2018-11-21T05:00:56.574Z,20.95
2018-11-21T05:03:24.778Z,20.48
2018-11-21T05:05:52.957Z,20.97
2018-11-21T05:08:21.134Z,20.65
2018-11-21T05:10:49.337Z,18.73
2018-11-21T05:13:17.509Z,18.40
2018-11-21T05:15:45.711Z,20.08
2018-11-21T05:18:14.015Z,20.60
2018-11-21T05:20:42.169Z,21.50
2018-11-21T05:23:10.300Z,18.12
2018-11-21T05:25:38.518Z,19.37
2018-11-21T05:28:06.725Z,20.27
2018-11-21T05:30:34.905Z,19.87
2018-11-21T05:33:03.138Z,21.27
2018-11-21T05:35:31.361Z,19.35
2018-11-21T05:37:59.547Z,18.50
2018-11-21T05:40:27.851Z,19.67
2018-11-21T05:42:56.030Z,18.42
2018-11-21T05:45:24.164Z,20.90
2018-11-21T05:47:52.366Z,20.80
2018-11-21T05:50:20.919Z,24.12
2018-11-21T05:52:49.098Z,25.37
2018-11-21T05:55:17.849Z,23.02
2018-11-21T05:57:46.065Z,23.10
2018-11-21T06:00:14.831Z,23.42
2018-11-21T06:02:43.073Z,21.15
2018-11-21T06:05:12.202Z,22.37
2018-11-21T06:07:40.568Z,21.82
2018-11-21T06:10:10.622Z,20.55
2018-11-21T06:12:39.294Z,20.27
2018-11-21T06:15:07.845Z,20.60
2018-11-21T06:17:36.041Z,19.77
2018-11-21T06:20:05.032Z,22.02
2018-11-21T06:22:33.165Z,20.65
2018-11-21T06:25:01.347Z,21.40
2018-11-21T06:27:29.601Z,21.07
2018-11-21T06:29:57.948Z,20.15
2018-11-21T06:32:26.328Z,22.45
2018-11-21T06:34:54.697Z,21.05
2018-11-21T06:37:22.870Z,19.52
2018-11-21T06:39:51.073Z,22.55
2018-11-21T06:42:19.268Z,22.93
2018-11-21T06:44:47.436Z,22.35
2018-11-21T06:47:15.636Z,22.65
2018-11-21T06:49:43.796Z,20.40
2018-11-21T06:52:11.962Z,21.60
2018-11-21T06:54:40.169Z,22.85
2018-11-21T06:57:08.549Z,23.62
2018-11-21T06:59:43.686Z,21.57
2018-11-21T07:02:12.093Z,20.85
2018-11-21T07:04:40.257Z,21.23
2018-11-21T07:07:08.442Z,24.70
2018-11-21T07:09:36.662Z,21.70
2018-11-21T07:12:05.265Z,23.22
2018-11-21T07:14:33.449Z,22.50
2018-11-21T07:17:01.606Z,23.32
2018-11-21T07:19:29.784Z,24.75
2018-11-21T07:21:57.956Z,26.35
2018-11-21T07:24:26.434Z,25.60
2018-11-21T07:26:54.289Z,22.95
2018-11-21T07:29:22.512Z,22.00
2018-11-21T07:31:50.697Z,23.40
2018-11-21T07:34:18.871Z,23.40
2018-11-21T07:36:51.182Z,22.98
2018-11-21T07:39:19.402Z,23.52
2018-11-21T07:41:47.594Z,23.40
2018-11-21T07:44:15.775Z,21.27
2018-11-21T07:46:43.991Z,22.00
2018-11-21T07:49:12.180Z,22.93
2018-11-21T07:51:40.377Z,22.58
2018-11-21T07:54:08.570Z,22.55
2018-11-21T07:57:22.320Z,22.65
2018-11-21T08:00:44.973Z,20.82
2018-11-21T08:03:14.779Z,23.10
2018-11-21T08:05:44.452Z,22.80
2018-11-21T08:08:30.200Z,21.80
2018-11-21T08:11:32.962Z,20.17
2018-11-21T08:14:22.912Z,21.48
2018-11-21T08:17:13.851Z,25.00
2018-11-21T08:20:01.233Z,21.65
2018-11-21T08:22:44.322Z,23.18
2018-11-21T08:25:30.209Z,21.40
2018-11-21T08:28:26.315Z,23.00
2018-11-21T08:30:54.635Z,20.70
2018-11-21T08:33:22.821Z,21.00
2018-11-21T08:35:50.996Z,21.47
2018-11-21T08:38:19.136Z,22.15
2018-11-21T08:40:47.320Z,21.73
2018-11-21T08:43:15.479Z,20.85
2018-11-21T08:45:43.645Z,20.17
2018-11-21T08:48:12.429Z,21.77
2018-11-21T08:50:40.625Z,22.17
2018-11-21T08:53:08.761Z,20.32
2018-11-21T08:55:38.583Z,21.10
2018-11-21T08:58:06.589Z,22.32
2018-11-21T09:00:34.837Z,20.88
2018-11-21T09:03:03.309Z,24.37
2018-11-21T09:05:31.540Z,21.42
2018-11-21T09:07:59.783Z,20.82
2018-11-21T09:12:55.544Z,21.60
2018-11-21T09:15:23.795Z,21.73
2018-11-21T09:17:52.125Z,21.45
2018-11-21T09:20:20.251Z,23.25
2018-11-21T09:22:48.465Z,21.23
2018-11-21T09:25:17.471Z,31.57
2018-11-21T09:27:45.993Z,22.83
2018-11-21T09:30:15.761Z,20.55
2018-11-21T09:32:44.743Z,20.10
2018-11-21T09:35:14.362Z,20.45
2018-11-21T09:37:42.500Z,20.70
2018-11-21T09:40:12.441Z,21.05
2018-11-21T09:42:41.833Z,20.70
2018-11-21T09:45:11.899Z,18.82
2018-11-21T09:47:40.135Z,19.33
2018-11-21T09:50:10.465Z,19.07
2018-11-21T09:52:38.732Z,18.90
2018-11-21T09:55:07.133Z,19.83
2018-11-21T09:57:35.266Z,18.53
2018-11-21T10:00:23.019Z,20.47
2018-11-21T10:03:11.672Z,19.23
2018-11-21T10:05:39.905Z,20.47
2018-11-21T10:08:37.525Z,18.93
2018-11-21T10:11:06.181Z,19.03
2018-11-21T10:13:34.389Z,19.63
2018-11-21T10:16:03.790Z,18.73
2018-11-21T10:18:32.221Z,18.60
2018-11-21T10:21:00.613Z,18.93
2018-11-21T10:23:28.774Z,19.50
2018-11-21T10:25:56.973Z,19.47
2018-11-21T10:28:25.142Z,19.27
2018-11-21T10:30:53.360Z,18.50
2018-11-21T10:33:21.550Z,18.30
2018-11-21T10:35:49.769Z,17.10
2018-11-21T10:38:17.980Z,18.83
2018-11-21T10:40:46.493Z,18.30
2018-11-21T10:43:16.613Z,17.80
2018-11-21T10:45:44.918Z,18.27
2018-11-21T10:48:13.089Z,17.87
2018-11-21T10:50:41.644Z,18.20
2018-11-21T10:53:09.906Z,18.23
2018-11-21T10:55:38.098Z,18.13
2018-11-21T10:58:06.278Z,18.90
2018-11-21T11:00:54.837Z,17.83
2018-11-21T11:03:25.195Z,19.60
2018-11-21T11:06:11.489Z,18.93
2018-11-21T11:08:58.000Z,19.63
2018-11-21T11:11:50.309Z,19.97
2018-11-21T11:14:52.581Z,21.00
2018-11-21T11:17:38.595Z,20.17
2018-11-21T11:20:26.810Z,20.40
2018-11-21T11:23:12.501Z,19.60
2018-11-21T11:26:02.408Z,20.43
2018-11-21T11:28:46.840Z,19.80
2018-11-21T11:31:34.212Z,21.63
2018-11-21T11:34:21.617Z,20.27
2018-11-21T11:37:21.092Z,19.47
2018-11-21T11:40:07.141Z,20.20
2018-11-21T11:43:05.992Z,20.63
2018-11-21T11:46:05.459Z,18.10
2018-11-21T11:48:51.840Z,18.57
2018-11-21T11:51:51.104Z,19.87
2018-11-21T11:54:41.406Z,18.57
2018-11-21T11:57:27.445Z,17.50
2018-11-21T12:00:27.077Z,19.20
2018-11-21T12:03:12.761Z,17.93
2018-11-21T12:05:59.104Z,19.07
2018-11-21T12:08:34.197Z,18.20
2018-11-21T12:11:18.453Z,12.47
2018-11-21T12:14:04.864Z,17.17
2018-11-21T12:17:01.280Z,17.33
2018-11-21T12:19:51.395Z,18.53
2018-11-21T12:22:38.752Z,17.63
2018-11-21T12:25:24.998Z,17.50
2018-11-21T12:28:21.467Z,17.97
2018-11-21T12:31:11.584Z,18.50
2018-11-21T12:34:14.074Z,18.50
2018-11-21T12:37:00.179Z,19.20
2018-11-21T12:39:59.583Z,18.33
2018-11-21T12:42:49.759Z,21.60
2018-11-21T12:45:37.134Z,24.10
2018-11-21T12:48:39.950Z,19.63
2018-11-21T12:51:20.272Z,21.63
2018-11-21T12:54:19.490Z,29.93
2018-11-21T12:57:15.910Z,92.87
2018-11-21T13:00:02.205Z,52.03
2018-11-21T13:02:36.792Z,46.07
2018-11-21T13:05:30.748Z,40.10
2018-11-21T13:08:26.727Z,32.20
2018-11-21T13:11:13.210Z,26.03
2018-11-21T13:13:55.727Z,36.30
2018-11-21T13:16:41.725Z,27.80
2018-11-21T13:19:29.141Z,27.23
2018-11-21T13:22:19.309Z,24.90
2018-11-21T13:25:24.778Z,21.17
2018-11-21T13:28:26.966Z,28.23
2018-11-21T13:31:13.353Z,20.50
2018-11-21T13:33:59.710Z,19.90
2018-11-21T13:37:01.962Z,18.33
2018-11-21T13:39:51.834Z,17.10
2018-11-21T13:42:30.595Z,18.60
2018-11-21T13:45:23.515Z,17.50
2018-11-21T13:48:16.312Z,17.67
2018-11-21T13:51:03.733Z,16.77
2018-11-21T13:53:49.520Z,18.27
2018-11-21T13:56:17.761Z,17.90
2018-11-21T13:58:45.901Z,17.10
2018-11-21T14:01:14.096Z,16.40
2018-11-21T14:03:42.285Z,19.23
2018-11-21T14:06:10.425Z,18.50
2018-11-21T14:08:38.761Z,18.03
2018-11-21T14:11:06.929Z,17.83
2018-11-21T14:13:35.131Z,18.57
2018-11-21T14:16:03.317Z,18.07
2018-11-21T14:18:31.577Z,17.30
2018-11-21T14:20:59.751Z,17.23
2018-11-21T14:23:27.949Z,18.50
2018-11-21T14:25:56.132Z,17.80
2018-11-21T14:28:24.352Z,16.80
2018-11-21T14:30:52.525Z,16.67
2018-11-21T14:33:20.789Z,16.00
2018-11-21T14:35:52.267Z,15.40
2018-11-21T14:38:17.145Z,16.30
2018-11-21T14:40:45.337Z,15.90
2018-11-21T14:43:13.543Z,15.87
2018-11-21T14:45:41.690Z,17.80
2018-11-21T14:48:09.873Z,55.43
2018-11-21T14:50:39.336Z,21.13
2018-11-21T14:53:07.194Z,21.03
2018-11-21T14:55:35.401Z,27.30
2018-11-21T14:58:03.553Z,25.10
2018-11-21T15:00:31.784Z,30.33
2018-11-21T15:02:59.986Z,20.90
2018-11-21T15:05:28.195Z,18.10
2018-11-21T15:07:56.395Z,16.63
2018-11-21T15:10:24.570Z,16.50
2018-11-21T15:12:52.721Z,16.50
2018-11-21T15:15:21.603Z,16.77
2018-11-21T15:17:49.798Z,15.03
2018-11-21T15:20:19.564Z,16.40
2018-11-21T15:22:47.767Z,17.10
2018-11-21T15:25:17.347Z,15.87
2018-11-21T15:27:45.720Z,15.60
2018-11-21T15:30:16.764Z,16.87
2018-11-21T15:32:45.266Z,15.90
2018-11-21T15:35:13.505Z,15.30
2018-11-21T15:37:42.409Z,16.67
2018-11-21T15:40:13.138Z,15.70
2018-11-21T15:42:41.379Z,14.97
2018-11-21T15:45:15.153Z,14.37
2018-11-21T15:47:43.671Z,14.27
2018-11-21T15:50:17.355Z,15.27
2018-11-21T15:52:52.709Z,14.37
2018-11-21T15:55:15.202Z,14.73
2018-11-21T15:57:43.669Z,13.83
2018-11-21T16:00:16.571Z,14.20
2018-11-21T16:02:45.460Z,14.47
2018-11-21T16:05:14.013Z,15.50
2018-11-21T16:07:42.206Z,14.10
2018-11-21T16:10:18.555Z,14.03
2018-11-21T16:12:40.711Z,13.90
2018-11-21T16:15:14.436Z,14.70
2018-11-21T16:17:42.835Z,13.73
2018-11-21T16:20:12.800Z,15.97
2018-11-21T16:22:41.045Z,15.40
2018-11-21T16:25:14.233Z,14.37
2018-11-21T16:27:41.015Z,15.20
2018-11-21T16:30:14.722Z,16.00
2018-11-21T16:32:43.185Z,13.50
2018-11-21T16:35:11.869Z,14.07
2018-11-21T16:37:40.891Z,14.63
2018-11-21T16:40:10.957Z,14.90
2018-11-21T16:42:39.785Z,15.57
2018-11-21T16:45:14.330Z,15.60
2018-11-21T16:47:42.443Z,14.90
2018-11-21T16:50:12.985Z,15.67
2018-11-21T16:52:41.575Z,17.23
2018-11-21T16:55:14.426Z,15.63
2018-11-21T16:57:43.336Z,17.53
2018-11-21T17:00:16.721Z,17.37
2018-11-21T17:02:45.198Z,17.60
2018-11-21T17:05:15.870Z,18.80
2018-11-21T17:07:48.029Z,18.13
2018-11-21T17:10:17.797Z,17.23
2018-11-21T17:12:50.222Z,18.40
2018-11-21T17:15:20.027Z,17.20
2018-11-21T17:17:49.946Z,18.27
2018-11-21T17:20:20.446Z,17.07
2018-11-21T17:22:52.331Z,16.73
2018-11-21T17:25:22.386Z,18.33
2018-11-21T17:27:51.111Z,16.10
2018-11-21T17:30:20.748Z,18.23
2018-11-21T17:32:53.858Z,18.32
2018-11-21T17:35:29.171Z,18.65
2018-11-21T17:38:01.940Z,16.53
2018-11-21T17:40:38.586Z,17.30
2018-11-21T17:43:07.437Z,17.93
2018-11-21T17:45:35.597Z,17.97
2018-11-21T17:48:04.091Z,16.80
2018-11-21T17:50:33.954Z,16.77
2018-11-21T17:53:04.185Z,16.00
2018-11-21T17:55:33.306Z,15.37
2018-11-21T17:58:01.709Z,16.90
2018-11-21T18:00:30.884Z,15.37
2018-11-21T18:02:59.282Z,15.60
2018-11-21T18:05:38.356Z,15.30
2018-11-21T18:08:06.755Z,14.60
2018-11-21T18:10:36.525Z,15.00
2018-11-21T18:13:04.999Z,16.00
2018-11-21T18:15:33.178Z,16.07
2018-11-21T18:18:01.338Z,15.97
2018-11-21T18:20:29.530Z,16.10
2018-11-21T18:22:58.006Z,16.70
2018-11-21T18:25:28.031Z,16.80
2018-11-21T18:27:56.756Z,16.00
2018-11-21T18:30:25.516Z,16.17
2018-11-21T18:32:53.697Z,16.27
2018-11-21T18:35:22.768Z,15.50
2018-11-21T18:37:51.291Z,16.07
2018-11-21T18:40:23.518Z,15.90
2018-11-21T18:42:51.700Z,15.43
2018-11-21T18:45:25.084Z,15.87
2018-11-21T18:47:53.320Z,17.13
2018-11-21T18:50:21.731Z,15.93
2018-11-21T18:52:51.164Z,16.10
2018-11-21T18:55:22.042Z,18.87
2018-11-21T18:57:58.365Z,15.23
2018-11-21T19:00:29.667Z,17.23
2018-11-21T19:02:57.841Z,18.07
2018-11-21T19:05:25.989Z,18.70
2018-11-21T19:07:54.181Z,17.30
2018-11-21T19:10:22.743Z,18.30
2018-11-21T19:12:51.014Z,18.80
2018-11-21T19:15:19.164Z,16.93
2018-11-21T19:17:47.377Z,18.50
2018-11-21T19:20:17.553Z,16.87
2018-11-21T19:22:46.047Z,17.27
2018-11-21T19:25:14.495Z,16.70
2018-11-21T19:27:43.110Z,16.73
2018-11-21T19:30:15.986Z,19.67
2018-11-21T19:32:44.455Z,18.40
2018-11-21T19:35:12.974Z,17.93
2018-11-21T19:37:41.236Z,19.90
2018-11-21T19:40:11.398Z,19.10
2018-11-21T19:42:39.606Z,20.67
2018-11-21T19:45:09.915Z,19.07
2018-11-21T19:47:38.210Z,19.77
2018-11-21T19:50:08.898Z,19.20
2018-11-21T19:52:37.285Z,19.60
2018-11-21T19:55:07.216Z,19.20
2018-11-21T19:57:35.433Z,19.47
2018-11-21T20:00:04.205Z,18.60
